Academy, New Jersey
Current Conditions -  °F | °C
As of 11:51 PM on Friday 31 Oct 2014 (Local Time) from KEWR Reporting Station
Overcast Overcast  
Wind Chill: 50°   Ceiling: 1500
Heat Index: 50°   Visibility: 10mi
Dew Point: 45°   Wind: 16mph
Humidity: 83%   Direction: 40°NE
Pressure: 29.86"   Gusts: NA
Location:  40.7334°N, 74.1735°W
Report Text: KEWR 010351Z 04014KT 10SM BKN015 OVC025 10/07 A2986 RMK AO2 SLP110 T01000072
Loading
Personal Weather Stations






























Interactive Weather Map
Tropical Storm Tracking
New forecast layout! Learn more

10-Day Weather Forecast

Advertisements
Track Severe Weather on mobile